sensor_id;sensor_type;location;lat;lon;timestamp;pressure;altitude;pressure_sealevel;temperature;humidity
18569;BME280;14780;48.316;-1.050;2024-01-27T00:02:33;100913.72;;;24.63;34.27
18569;BME280;14780;48.316;-1.050;2024-01-27T00:05:18;100916.09;;;24.59;34.40
18569;BME280;14780;48.316;-1.050;2024-01-27T00:08:02;100901.81;;;24.57;34.35
18569;BME280;14780;48.316;-1.050;2024-01-27T00:10:47;100911.19;;;24.61;34.16
18569;BME280;14780;48.316;-1.050;2024-01-27T00:13:32;100904.97;;;24.54;34.10
18569;BME280;14780;48.316;-1.050;2024-01-27T00:16:16;100907.28;;;24.57;34.17
18569;BME280;14780;48.316;-1.050;2024-01-27T00:19:01;100903.06;;;24.55;34.25
18569;BME280;14780;48.316;-1.050;2024-01-27T00:21:46;100909.47;;;24.49;34.28
18569;BME280;14780;48.316;-1.050;2024-01-27T00:24:31;100911.97;;;24.50;33.95
18569;BME280;14780;48.316;-1.050;2024-01-27T00:27:15;100915.78;;;24.49;34.25
18569;BME280;14780;48.316;-1.050;2024-01-27T00:30:00;100913.66;;;24.51;34.11
18569;BME280;14780;48.316;-1.050;2024-01-27T00:32:45;100901.97;;;24.44;34.10
18569;BME280;14780;48.316;-1.050;2024-01-27T00:35:30;100906.97;;;24.47;33.99
18569;BME280;14780;48.316;-1.050;2024-01-27T00:38:15;100897.44;;;24.50;34.14
18569;BME280;14780;48.316;-1.050;2024-01-27T00:41:00;100897.94;;;24.47;34.14
18569;BME280;14780;48.316;-1.050;2024-01-27T00:43:45;100889.59;;;24.53;34.00
18569;BME280;14780;48.316;-1.050;2024-01-27T00:46:30;100883.31;;;24.53;34.02
18569;BME280;14780;48.316;-1.050;2024-01-27T00:49:14;100879.72;;;24.52;34.00
18569;BME280;14780;48.316;-1.050;2024-01-27T00:51:59;100882.94;;;24.49;34.01
18569;BME280;14780;48.316;-1.050;2024-01-27T00:54:44;100878.88;;;24.52;33.85
18569;BME280;14780;48.316;-1.050;2024-01-27T00:57:28;100871.53;;;24.52;33.89
18569;BME280;14780;48.316;-1.050;2024-01-27T01:00:13;100858.25;;;24.56;33.86
18569;BME280;14780;48.316;-1.050;2024-01-27T01:02:58;100862.47;;;24.52;33.68
18569;BME280;14780;48.316;-1.050;2024-01-27T01:05:43;100860.97;;;24.56;33.76
18569;BME280;14780;48.316;-1.050;2024-01-27T01:08:27;100867.13;;;24.51;33.77
18569;BME280;14780;48.316;-1.050;2024-01-27T01:11:12;100850.56;;;24.46;33.67
18569;BME280;14780;48.316;-1.050;2024-01-27T01:13:57;100852.22;;;24.47;33.55
18569;BME280;14780;48.316;-1.050;2024-01-27T01:16:42;100848.31;;;24.43;33.73
18569;BME280;14780;48.316;-1.050;2024-01-27T01:19:26;100865.31;;;24.45;33.49
18569;BME280;14780;48.316;-1.050;2024-01-27T01:22:11;100850.31;;;24.36;33.71
18569;BME280;14780;48.316;-1.050;2024-01-27T01:24:55;100851.38;;;24.35;33.73
18569;BME280;14780;48.316;-1.050;2024-01-27T01:27:40;100841.16;;;24.42;33.61
18569;BME280;14780;48.316;-1.050;2024-01-27T01:30:24;100838.06;;;24.39;33.70
18569;BME280;14780;48.316;-1.050;2024-01-27T01:33:11;100833.19;;;24.41;33.58
18569;BME280;14780;48.316;-1.050;2024-01-27T01:35:55;100835.06;;;24.40;33.54
18569;BME280;14780;48.316;-1.050;2024-01-27T01:38:40;100827.13;;;24.39;33.60
18569;BME280;14780;48.316;-1.050;2024-01-27T01:41:25;100823.41;;;24.33;33.65
18569;BME280;14780;48.316;-1.050;2024-01-27T01:44:10;100816.50;;;24.31;33.56
18569;BME280;14780;48.316;-1.050;2024-01-27T01:46:54;100818.84;;;24.27;33.60
18569;BME280;14780;48.316;-1.050;2024-01-27T01:49:39;100816.75;;;24.29;33.67
18569;BME280;14780;48.316;-1.050;2024-01-27T01:52:24;100811.13;;;24.24;33.64
18569;BME280;14780;48.316;-1.050;2024-01-27T01:55:09;100814.00;;;24.29;33.57
18569;BME280;14780;48.316;-1.050;2024-01-27T01:57:54;100815.09;;;24.28;33.65
18569;BME280;14780;48.316;-1.050;2024-01-27T02:00:38;100813.38;;;24.27;33.57
18569;BME280;14780;48.316;-1.050;2024-01-27T02:03:26;100820.41;;;24.23;33.44
18569;BME280;14780;48.316;-1.050;2024-01-27T02:06:11;100822.81;;;24.31;33.38
18569;BME280;14780;48.316;-1.050;2024-01-27T02:08:55;100830.88;;;24.26;33.39
18569;BME280;14780;48.316;-1.050;2024-01-27T02:11:41;100826.03;;;24.28;33.35
18569;BME280;14780;48.316;-1.050;2024-01-27T02:14:26;100815.53;;;24.25;33.42
18569;BME280;14780;48.316;-1.050;2024-01-27T02:17:12;100809.81;;;24.15;33.52
18569;BME280;14780;48.316;-1.050;2024-01-27T02:19:57;100813.03;;;24.24;33.33
18569;BME280;14780;48.316;-1.050;2024-01-27T02:22:41;100806.84;;;24.17;33.46
18569;BME280;14780;48.316;-1.050;2024-01-27T02:25:26;100803.84;;;24.18;33.51
18569;BME280;14780;48.316;-1.050;2024-01-27T02:28:10;100806.38;;;24.20;33.28
18569;BME280;14780;48.316;-1.050;2024-01-27T02:30:57;100808.50;;;24.18;33.37
18569;BME280;14780;48.316;-1.050;2024-01-27T02:33:42;100813.34;;;24.16;33.31
18569;BME280;14780;48.316;-1.050;2024-01-27T02:36:26;100820.25;;;24.18;33.39
18569;BME280;14780;48.316;-1.050;2024-01-27T02:39:11;100821.19;;;24.12;33.52
18569;BME280;14780;48.316;-1.050;2024-01-27T02:41:56;100814.78;;;24.18;33.22
18569;BME280;14780;48.316;-1.050;2024-01-27T02:44:40;100813.59;;;24.14;33.28
18569;BME280;14780;48.316;-1.050;2024-01-27T02:47:25;100816.09;;;24.16;33.36
18569;BME280;14780;48.316;-1.050;2024-01-27T02:50:10;100810.41;;;24.17;33.31
18569;BME280;14780;48.316;-1.050;2024-01-27T02:52:55;100818.97;;;24.21;33.29
18569;BME280;14780;48.316;-1.050;2024-01-27T02:55:40;100813.50;;;24.21;33.24
18569;BME280;14780;48.316;-1.050;2024-01-27T02:58:25;100806.59;;;24.18;33.24
18569;BME280;14780;48.316;-1.050;2024-01-27T03:01:09;100809.09;;;24.20;33.21
18569;BME280;14780;48.316;-1.050;2024-01-27T03:03:54;100806.91;;;24.10;33.19
18569;BME280;14780;48.316;-1.050;2024-01-27T03:06:39;100801.13;;;24.18;33.15
18569;BME280;14780;48.316;-1.050;2024-01-27T03:09:23;100806.38;;;24.20;33.05
18569;BME280;14780;48.316;-1.050;2024-01-27T03:12:08;100814.19;;;24.16;33.14
18569;BME280;14780;48.316;-1.050;2024-01-27T03:14:53;100809.81;;;24.15;33.04
18569;BME280;14780;48.316;-1.050;2024-01-27T03:17:40;100829.09;;;24.20;33.08
18569;BME280;14780;48.316;-1.050;2024-01-27T03:20:25;100813.34;;;24.16;33.09
18569;BME280;14780;48.316;-1.050;2024-01-27T03:23:10;100809.78;;;24.04;33.25
18569;BME280;14780;48.316;-1.050;2024-01-27T03:25:54;100816.19;;;24.09;33.14
18569;BME280;14780;48.316;-1.050;2024-01-27T03:28:39;100818.09;;;24.09;33.07
18569;BME280;14780;48.316;-1.050;2024-01-27T03:31:29;100807.84;;;24.04;33.09
18569;BME280;14780;48.316;-1.050;2024-01-27T03:34:14;100812.03;;;24.07;33.11
18569;BME280;14780;48.316;-1.050;2024-01-27T03:36:58;100806.34;;;24.08;33.03
18569;BME280;14780;48.316;-1.050;2024-01-27T03:39:43;100800.50;;;24.05;33.08
18569;BME280;14780;48.316;-1.050;2024-01-27T03:42:27;100791.44;;;24.04;33.07
18569;BME280;14780;48.316;-1.050;2024-01-27T03:45:12;100788.97;;;24.03;33.03
18569;BME280;14780;48.316;-1.050;2024-01-27T03:47:57;100790.25;;;24.00;33.00
18569;BME280;14780;48.316;-1.050;2024-01-27T03:50:42;100785.84;;;23.99;32.99
18569;BME280;14780;48.316;-1.050;2024-01-27T03:53:27;100777.66;;;23.99;32.83
18569;BME280;14780;48.316;-1.050;2024-01-27T03:56:12;100766.47;;;24.01;32.91
18569;BME280;14780;48.316;-1.050;2024-01-27T03:58:56;100775.50;;;24.01;32.79
18569;BME280;14780;48.316;-1.050;2024-01-27T04:01:41;100781.31;;;23.93;33.00
18569;BME280;14780;48.316;-1.050;2024-01-27T04:04:26;100780.13;;;24.01;32.82
18569;BME280;14780;48.316;-1.050;2024-01-27T04:07:11;100778.09;;;23.96;32.78
18569;BME280;14780;48.316;-1.050;2024-01-27T04:09:55;100783.41;;;23.91;33.03
18569;BME280;14780;48.316;-1.050;2024-01-27T04:12:42;100779.53;;;23.99;32.83
18569;BME280;14780;48.316;-1.050;2024-01-27T04:15:27;100781.69;;;23.97;32.81
18569;BME280;14780;48.316;-1.050;2024-01-27T04:18:12;100777.50;;;23.94;32.75
18569;BME280;14780;48.316;-1.050;2024-01-27T04:20:57;100789.16;;;23.90;32.86
18569;BME280;14780;48.316;-1.050;2024-01-27T04:23:41;100790.88;;;23.84;32.93
18569;BME280;14780;48.316;-1.050;2024-01-27T04:26:26;100784.50;;;23.90;32.88
18569;BME280;14780;48.316;-1.050;2024-01-27T04:29:11;100776.06;;;23.92;32.78
18569;BME280;14780;48.316;-1.050;2024-01-27T04:31:59;100769.16;;;23.89;32.78
18569;BME280;14780;48.316;-1.050;2024-01-27T04:34:44;100767.72;;;23.87;32.79
18569;BME280;14780;48.316;-1.050;2024-01-27T04:37:29;100774.03;;;23.87;32.77
18569;BME280;14780;48.316;-1.050;2024-01-27T04:40:13;100772.97;;;23.88;32.75
18569;BME280;14780;48.316;-1.050;2024-01-27T04:42:58;100776.13;;;23.85;32.88
18569;BME280;14780;48.316;-1.050;2024-01-27T04:45:43;100773.63;;;23.84;32.82
18569;BME280;14780;48.316;-1.050;2024-01-27T04:48:28;100770.06;;;23.83;32.74
18569;BME280;14780;48.316;-1.050;2024-01-27T04:51:12;100775.50;;;23.83;32.88
18569;BME280;14780;48.316;-1.050;2024-01-27T04:53:57;100772.13;;;23.88;32.72
18569;BME280;14780;48.316;-1.050;2024-01-27T04:56:42;100770.44;;;23.87;32.78
18569;BME280;14780;48.316;-1.050;2024-01-27T04:59:27;100775.59;;;23.95;32.70
18569;BME280;14780;48.316;-1.050;2024-01-27T05:02:12;100770.22;;;23.88;32.65
18569;BME280;14780;48.316;-1.050;2024-01-27T05:04:56;100764.75;;;23.88;32.64
18569;BME280;14780;48.316;-1.050;2024-01-27T05:07:41;100757.16;;;23.90;32.62
18569;BME280;14780;48.316;-1.050;2024-01-27T05:10:26;100757.63;;;23.87;32.72
18569;BME280;14780;48.316;-1.050;2024-01-27T05:13:11;100746.69;;;23.87;32.71
18569;BME280;14780;48.316;-1.050;2024-01-27T05:15:56;100744.09;;;23.92;32.58
18569;BME280;14780;48.316;-1.050;2024-01-27T05:18:41;100746.00;;;23.92;32.48
18569;BME280;14780;48.316;-1.050;2024-01-27T05:21:25;100751.69;;;23.90;32.55
18569;BME280;14780;48.316;-1.050;2024-01-27T05:24:10;100752.38;;;23.86;32.63
18569;BME280;14780;48.316;-1.050;2024-01-27T05:26:55;100747.59;;;23.81;32.53
18569;BME280;14780;48.316;-1.050;2024-01-27T05:29:39;100754.13;;;23.80;32.69
18569;BME280;14780;48.316;-1.050;2024-01-27T05:32:25;100748.06;;;23.78;32.70
18569;BME280;14780;48.316;-1.050;2024-01-27T05:35:09;100745.44;;;23.83;32.59
18569;BME280;14780;48.316;-1.050;2024-01-27T05:37:55;100747.59;;;23.81;32.63
18569;BME280;14780;48.316;-1.050;2024-01-27T05:40:40;100739.88;;;23.78;32.55
18569;BME280;14780;48.316;-1.050;2024-01-27T05:43:25;100736.50;;;23.76;32.65
18569;BME280;14780;48.316;-1.050;2024-01-27T05:46:10;100739.59;;;23.80;32.65
18569;BME280;14780;48.316;-1.050;2024-01-27T05:48:55;100739.25;;;23.76;32.59
18569;BME280;14780;48.316;-1.050;2024-01-27T05:51:45;100740.09;;;23.77;32.60
18569;BME280;14780;48.316;-1.050;2024-01-27T05:54:30;100743.16;;;23.69;32.64
18569;BME280;14780;48.316;-1.050;2024-01-27T05:57:15;100746.03;;;23.74;32.56
18569;BME280;14780;48.316;-1.050;2024-01-27T05:59:59;100748.06;;;23.78;32.47
18569;BME280;14780;48.316;-1.050;2024-01-27T06:02:44;100745.34;;;23.78;32.48
18569;BME280;14780;48.316;-1.050;2024-01-27T06:05:29;100741.59;;;23.73;32.37
18569;BME280;14780;48.316;-1.050;2024-01-27T06:08:14;100751.03;;;23.77;32.46
18569;BME280;14780;48.316;-1.050;2024-01-27T06:10:58;100753.38;;;23.73;32.32
18569;BME280;14780;48.316;-1.050;2024-01-27T06:13:43;100754.47;;;23.72;32.36
18569;BME280;14780;48.316;-1.050;2024-01-27T06:16:30;100741.22;;;23.69;32.42
18569;BME280;14780;48.316;-1.050;2024-01-27T06:19:14;100737.91;;;23.67;32.40
18569;BME280;14780;48.316;-1.050;2024-01-27T06:21:59;100743.38;;;23.67;32.42
18569;BME280;14780;48.316;-1.050;2024-01-27T06:24:44;100744.81;;;23.70;32.44
18569;BME280;14780;48.316;-1.050;2024-01-27T06:27:29;100739.44;;;23.63;32.40
18569;BME280;14780;48.316;-1.050;2024-01-27T06:30:14;100745.94;;;23.62;32.58
18569;BME280;14780;48.316;-1.050;2024-01-27T06:33:00;100742.78;;;23.65;32.41
18569;BME280;14780;48.316;-1.050;2024-01-27T06:35:44;100751.19;;;23.64;32.47
18569;BME280;14780;48.316;-1.050;2024-01-27T06:38:29;100744.06;;;23.63;32.38
18569;BME280;14780;48.316;-1.050;2024-01-27T06:41:16;100751.56;;;23.67;32.34
18569;BME280;14780;48.316;-1.050;2024-01-27T06:44:01;100754.16;;;23.62;32.38
18569;BME280;14780;48.316;-1.050;2024-01-27T06:46:45;100749.38;;;23.58;32.37
18569;BME280;14780;48.316;-1.050;2024-01-27T06:49:34;100759.88;;;23.61;32.47
18569;BME280;14780;48.316;-1.050;2024-01-27T06:52:19;100751.41;;;23.62;32.15
18569;BME280;14780;48.316;-1.050;2024-01-27T06:55:03;100763.91;;;23.58;32.27
18569;BME280;14780;48.316;-1.050;2024-01-27T06:57:49;100771.03;;;23.59;32.36
18569;BME280;14780;48.316;-1.050;2024-01-27T07:00:33;100770.09;;;23.65;32.24
18569;BME280;14780;48.316;-1.050;2024-01-27T07:03:18;100759.03;;;23.60;32.27
18569;BME280;14780;48.316;-1.050;2024-01-27T07:06:03;100759.50;;;23.57;32.30
18569;BME280;14780;48.316;-1.050;2024-01-27T07:08:48;100754.63;;;23.59;32.27
18569;BME280;14780;48.316;-1.050;2024-01-27T07:11:32;100758.44;;;23.58;32.38
18569;BME280;14780;48.316;-1.050;2024-01-27T07:14:18;100751.34;;;23.69;32.35
18569;BME280;14780;48.316;-1.050;2024-01-27T07:17:04;100750.66;;;23.73;33.54
18569;BME280;14780;48.316;-1.050;2024-01-27T07:19:49;100747.38;;;23.83;34.36
18569;BME280;14780;48.316;-1.050;2024-01-27T07:22:33;100749.72;;;23.79;33.16
18569;BME280;14780;48.316;-1.050;2024-01-27T07:25:18;100742.13;;;23.81;33.13
18569;BME280;14780;48.316;-1.050;2024-01-27T07:28:03;100727.38;;;23.82;33.04
18569;BME280;14780;48.316;-1.050;2024-01-27T07:30:48;100732.25;;;23.80;33.02
18569;BME280;14780;48.316;-1.050;2024-01-27T07:33:32;100736.28;;;23.78;32.93
18569;BME280;14780;48.316;-1.050;2024-01-27T07:36:17;100732.59;;;23.72;32.88
18569;BME280;14780;48.316;-1.050;2024-01-27T07:39:02;100738.88;;;23.73;32.91
18569;BME280;14780;48.316;-1.050;2024-01-27T07:41:48;100723.78;;;23.70;32.94
18569;BME280;14780;48.316;-1.050;2024-01-27T07:44:33;100730.56;;;23.68;32.91
18569;BME280;14780;48.316;-1.050;2024-01-27T07:47:18;100729.72;;;23.67;33.13
18569;BME280;14780;48.316;-1.050;2024-01-27T07:50:03;100733.66;;;23.71;33.09
18569;BME280;14780;48.316;-1.050;2024-01-27T07:52:48;100731.38;;;23.68;33.05
18569;BME280;14780;48.316;-1.050;2024-01-27T07:55:32;100732.81;;;23.71;32.96
18569;BME280;14780;48.316;-1.050;2024-01-27T07:58:17;100743.97;;;23.69;33.14
18569;BME280;14780;48.316;-1.050;2024-01-27T08:01:02;100737.09;;;23.67;33.08
18569;BME280;14780;48.316;-1.050;2024-01-27T08:03:47;100729.25;;;23.70;33.03
18569;BME280;14780;48.316;-1.050;2024-01-27T08:06:32;100729.94;;;23.66;32.98
18569;BME280;14780;48.316;-1.050;2024-01-27T08:09:17;100733.88;;;23.70;32.97
18569;BME280;14780;48.316;-1.050;2024-01-27T08:12:02;100734.09;;;23.68;32.70
18569;BME280;14780;48.316;-1.050;2024-01-27T08:14:47;100731.84;;;23.65;32.86
18569;BME280;14780;48.316;-1.050;2024-01-27T08:17:32;100742.19;;;23.63;32.93
18569;BME280;14780;48.316;-1.050;2024-01-27T08:20:16;100738.81;;;23.61;32.92
18569;BME280;14780;48.316;-1.050;2024-01-27T08:23:01;100736.78;;;23.57;32.90
18569;BME280;14780;48.316;-1.050;2024-01-27T08:25:45;100737.75;;;23.62;32.92
18569;BME280;14780;48.316;-1.050;2024-01-27T08:28:34;100745.59;;;23.59;32.91
18569;BME280;14780;48.316;-1.050;2024-01-27T08:31:19;100738.09;;;23.54;32.99
18569;BME280;14780;48.316;-1.050;2024-01-27T08:34:04;100737.63;;;23.57;33.07
18569;BME280;14780;48.316;-1.050;2024-01-27T08:36:49;100736.78;;;23.57;32.93
18569;BME280;14780;48.316;-1.050;2024-01-27T08:39:34;100720.03;;;23.53;33.01
18569;BME280;14780;48.316;-1.050;2024-01-27T08:42:19;100717.44;;;23.58;32.98
18569;BME280;14780;48.316;-1.050;2024-01-27T08:45:04;100727.19;;;23.66;33.11
18569;BME280;14780;48.316;-1.050;2024-01-27T08:47:48;100731.00;;;23.65;33.32
18569;BME280;14780;48.316;-1.050;2024-01-27T08:50:33;100723.09;;;23.75;33.72
18569;BME280;14780;48.316;-1.050;2024-01-27T08:53:18;100727.88;;;23.79;33.89
18569;BME280;14780;48.316;-1.050;2024-01-27T08:56:02;100730.28;;;23.87;34.17
18569;BME280;14780;48.316;-1.050;2024-01-27T08:58:47;100737.09;;;23.96;35.21
18569;BME280;14780;48.316;-1.050;2024-01-27T09:01:32;100732.47;;;23.97;34.66
18569;BME280;14780;48.316;-1.050;2024-01-27T09:04:17;100736.75;;;24.04;35.65
18569;BME280;14780;48.316;-1.050;2024-01-27T09:07:01;100730.22;;;24.05;35.79
18569;BME280;14780;48.316;-1.050;2024-01-27T09:09:46;100736.66;;;24.11;35.42
18569;BME280;14780;48.316;-1.050;2024-01-27T09:12:30;100734.53;;;24.13;35.18
18569;BME280;14780;48.316;-1.050;2024-01-27T09:15:15;100737.97;;;24.08;35.12
18569;BME280;14780;48.316;-1.050;2024-01-27T09:18:00;100749.28;;;24.12;35.78
18569;BME280;14780;48.316;-1.050;2024-01-27T09:20:44;100744.16;;;24.15;36.61
18569;BME280;14780;48.316;-1.050;2024-01-27T09:23:29;100741.78;;;24.19;36.88
18569;BME280;14780;48.316;-1.050;2024-01-27T09:26:14;100751.53;;;24.26;37.50
18569;BME280;14780;48.316;-1.050;2024-01-27T09:28:59;100758.22;;;24.30;36.79
18569;BME280;14780;48.316;-1.050;2024-01-27T09:31:44;100751.09;;;24.29;36.38
18569;BME280;14780;48.316;-1.050;2024-01-27T09:34:28;100738.56;;;24.22;36.17
18569;BME280;14780;48.316;-1.050;2024-01-27T09:37:14;100738.13;;;24.25;36.28
18569;BME280;14780;48.316;-1.050;2024-01-27T09:39:58;100735.03;;;24.21;35.77
18569;BME280;14780;48.316;-1.050;2024-01-27T09:42:51;100741.56;;;24.20;35.58
18569;BME280;14780;48.316;-1.050;2024-01-27T09:45:37;100746.41;;;24.18;35.37
18569;BME280;14780;48.316;-1.050;2024-01-27T09:48:22;100745.22;;;24.14;35.22
18569;BME280;14780;48.316;-1.050;2024-01-27T09:51:09;100736.53;;;24.06;35.31
18569;BME280;14780;48.316;-1.050;2024-01-27T09:53:54;100753.53;;;24.08;35.13
18569;BME280;14780;48.316;-1.050;2024-01-27T09:56:39;100743.16;;;23.98;34.87
18569;BME280;14780;48.316;-1.050;2024-01-27T09:59:25;100745.16;;;23.91;34.88
18569;BME280;14780;48.316;-1.050;2024-01-27T10:02:12;100735.19;;;23.97;34.61
18569;BME280;14780;48.316;-1.050;2024-01-27T10:04:58;100736.84;;;23.86;34.75
18569;BME280;14780;48.316;-1.050;2024-01-27T10:07:43;100739.16;;;23.83;34.48
18569;BME280;14780;48.316;-1.050;2024-01-27T10:10:27;100742.97;;;23.82;34.37
18569;BME280;14780;48.316;-1.050;2024-01-27T10:13:16;100739.97;;;23.83;34.30
18569;BME280;14780;48.316;-1.050;2024-01-27T10:16:10;100745.56;;;23.77;34.32
18569;BME280;14780;48.316;-1.050;2024-01-27T10:19:03;100734.72;;;23.70;34.22
18569;BME280;14780;48.316;-1.050;2024-01-27T10:21:59;100740.56;;;23.74;34.14
18569;BME280;14780;48.316;-1.050;2024-01-27T10:24:44;100746.69;;;23.69;34.05
18569;BME280;14780;48.316;-1.050;2024-01-27T10:27:28;100749.00;;;23.72;34.05
18569;BME280;14780;48.316;-1.050;2024-01-27T10:30:17;100738.97;;;23.66;33.92
18569;BME280;14780;48.316;-1.050;2024-01-27T10:33:02;100727.19;;;23.66;34.01
18569;BME280;14780;48.316;-1.050;2024-01-27T10:35:58;100725.31;;;23.66;33.92
18569;BME280;14780;48.316;-1.050;2024-01-27T10:38:43;100722.31;;;23.56;33.87
18569;BME280;14780;48.316;-1.050;2024-01-27T10:41:28;100715.16;;;23.55;33.93
18569;BME280;14780;48.316;-1.050;2024-01-27T10:44:15;100696.66;;;23.57;33.90
18569;BME280;14780;48.316;-1.050;2024-01-27T10:47:02;100697.09;;;23.54;33.75
18569;BME280;14780;48.316;-1.050;2024-01-27T10:49:49;100691.78;;;23.59;33.72
18569;BME280;14780;48.316;-1.050;2024-01-27T10:52:38;100691.94;;;23.64;33.58
18569;BME280;14780;48.316;-1.050;2024-01-27T10:55:25;100692.53;;;23.66;33.62
18569;BME280;14780;48.316;-1.050;2024-01-27T10:58:11;100699.06;;;23.65;33.60
18569;BME280;14780;48.316;-1.050;2024-01-27T11:00:57;100715.31;;;23.60;33.65
18569;BME280;14780;48.316;-1.050;2024-01-27T11:03:43;100697.38;;;23.64;33.52
18569;BME280;14780;48.316;-1.050;2024-01-27T11:06:29;100693.59;;;23.65;33.55
18569;BME280;14780;48.316;-1.050;2024-01-27T11:09:17;100680.06;;;23.70;33.51
18569;BME280;14780;48.316;-1.050;2024-01-27T11:12:03;100678.97;;;23.60;33.44
18569;BME280;14780;48.316;-1.050;2024-01-27T11:14:50;100677.41;;;23.64;33.39
18569;BME280;14780;48.316;-1.050;2024-01-27T11:17:45;100664.47;;;23.71;33.20
18569;BME280;14780;48.316;-1.050;2024-01-27T11:20:31;100652.75;;;23.70;33.34
18569;BME280;14780;48.316;-1.050;2024-01-27T11:23:17;100647.72;;;23.67;33.20
18569;BME280;14780;48.316;-1.050;2024-01-27T11:26:09;100650.13;;;23.75;33.16
18569;BME280;14780;48.316;-1.050;2024-01-27T11:28:54;100650.47;;;23.79;33.09
18569;BME280;14780;48.316;-1.050;2024-01-27T11:31:40;100646.31;;;23.76;33.07
18569;BME280;14780;48.316;-1.050;2024-01-27T11:34:25;100637.53;;;23.74;32.96
18569;BME280;14780;48.316;-1.050;2024-01-27T11:37:16;100631.69;;;23.71;33.04
18569;BME280;14780;48.316;-1.050;2024-01-27T11:40:04;100631.91;;;23.69;33.09
18569;BME280;14780;48.316;-1.050;2024-01-27T11:42:58;100615.53;;;23.69;33.01
18569;BME280;14780;48.316;-1.050;2024-01-27T11:45:43;100605.06;;;23.66;32.88
18569;BME280;14780;48.316;-1.050;2024-01-27T11:48:29;100600.19;;;23.68;32.98
18569;BME280;14780;48.316;-1.050;2024-01-27T11:51:14;100590.69;;;23.59;32.90
18569;BME280;14780;48.316;-1.050;2024-01-27T11:53:59;100592.69;;;23.64;32.89
18569;BME280;14780;48.316;-1.050;2024-01-27T11:56:44;100595.94;;;23.72;32.73
18569;BME280;14780;48.316;-1.050;2024-01-27T11:59:28;100591.03;;;23.63;32.88
18569;BME280;14780;48.316;-1.050;2024-01-27T12:02:13;100601.13;;;23.62;32.89
18569;BME280;14780;48.316;-1.050;2024-01-27T12:04:58;100606.38;;;23.75;32.83
18569;BME280;14780;48.316;-1.050;2024-01-27T12:07:43;100608.16;;;23.70;32.85
18569;BME280;14780;48.316;-1.050;2024-01-27T12:10:28;100614.22;;;23.72;32.69
18569;BME280;14780;48.316;-1.050;2024-01-27T12:13:12;100616.94;;;23.72;32.79
18569;BME280;14780;48.316;-1.050;2024-01-27T12:15:57;100611.13;;;23.68;32.57
18569;BME280;14780;48.316;-1.050;2024-01-27T12:18:42;100607.31;;;23.69;32.61
18569;BME280;14780;48.316;-1.050;2024-01-27T12:21:27;100610.53;;;23.66;32.35
18569;BME280;14780;48.316;-1.050;2024-01-27T12:24:16;100600.19;;;23.68;32.41
18569;BME280;14780;48.316;-1.050;2024-01-27T12:27:05;100598.53;;;23.67;32.59
18569;BME280;14780;48.316;-1.050;2024-01-27T12:29:50;100585.47;;;23.69;32.34
18569;BME280;14780;48.316;-1.050;2024-01-27T12:32:35;100583.13;;;23.84;32.43
18569;BME280;14780;48.316;-1.050;2024-01-27T12:35:19;100593.22;;;23.84;32.44
18569;BME280;14780;48.316;-1.050;2024-01-27T12:38:06;100567.19;;;23.81;32.70
18569;BME280;14780;48.316;-1.050;2024-01-27T12:40:51;100563.06;;;23.90;32.75
18569;BME280;14780;48.316;-1.050;2024-01-27T12:43:35;100540.59;;;23.88;32.96
18569;BME280;14780;48.316;-1.050;2024-01-27T12:46:21;100538.81;;;23.94;32.80
18569;BME280;14780;48.316;-1.050;2024-01-27T12:49:06;100539.66;;;23.94;32.56
18569;BME280;14780;48.316;-1.050;2024-01-27T12:51:51;100547.00;;;24.05;32.56
18569;BME280;14780;48.316;-1.050;2024-01-27T12:54:36;100547.00;;;24.05;32.23
18569;BME280;14780;48.316;-1.050;2024-01-27T12:57:21;100553.66;;;24.09;32.20
18569;BME280;14780;48.316;-1.050;2024-01-27T13:00:07;100555.91;;;24.12;32.07
18569;BME280;14780;48.316;-1.050;2024-01-27T13:02:54;100553.66;;;24.09;32.14
18569;BME280;14780;48.316;-1.050;2024-01-27T13:05:39;100550.34;;;24.07;32.16
18569;BME280;14780;48.316;-1.050;2024-01-27T13:08:24;100562.56;;;24.16;32.35
18569;BME280;14780;48.316;-1.050;2024-01-27T13:11:09;100553.88;;;24.19;32.32
18569;BME280;14780;48.316;-1.050;2024-01-27T13:13:54;100550.09;;;24.20;32.41
18569;BME280;14780;48.316;-1.050;2024-01-27T13:16:39;100552.22;;;24.18;32.33
18569;BME280;14780;48.316;-1.050;2024-01-27T13:19:24;100540.31;;;24.24;32.38
18569;BME280;14780;48.316;-1.050;2024-01-27T13:22:09;100519.41;;;24.18;32.57
18569;BME280;14780;48.316;-1.050;2024-01-27T13:24:53;100515.13;;;24.22;32.41
18569;BME280;14780;48.316;-1.050;2024-01-27T13:27:39;100502.03;;;24.24;32.50
18569;BME280;14780;48.316;-1.050;2024-01-27T13:30:24;100502.63;;;24.26;32.47
18569;BME280;14780;48.316;-1.050;2024-01-27T13:33:08;100492.75;;;24.25;32.49
18569;BME280;14780;48.316;-1.050;2024-01-27T13:35:53;100484.66;;;24.30;32.42
18569;BME280;14780;48.316;-1.050;2024-01-27T13:38:37;100478.13;;;24.31;32.63
18569;BME280;14780;48.316;-1.050;2024-01-27T13:41:22;100479.78;;;24.32;32.60
18569;BME280;14780;48.316;-1.050;2024-01-27T13:44:07;100474.41;;;24.37;32.56
18569;BME280;14780;48.316;-1.050;2024-01-27T13:46:52;100466.31;;;24.42;32.37
18569;BME280;14780;48.316;-1.050;2024-01-27T13:49:38;100472.13;;;24.46;32.23
18569;BME280;14780;48.316;-1.050;2024-01-27T13:52:23;100462.00;;;24.46;32.14
18569;BME280;14780;48.316;-1.050;2024-01-27T13:55:08;100458.81;;;24.49;32.03
18569;BME280;14780;48.316;-1.050;2024-01-27T13:57:54;100462.84;;;24.47;31.76
18569;BME280;14780;48.316;-1.050;2024-01-27T14:00:38;100461.03;;;24.52;31.57
18569;BME280;14780;48.316;-1.050;2024-01-27T14:03:23;100460.81;;;24.54;31.52
18569;BME280;14780;48.316;-1.050;2024-01-27T14:06:08;100448.44;;;24.51;31.31
18569;BME280;14780;48.316;-1.050;2024-01-27T14:08:56;100431.50;;;24.54;31.07
18569;BME280;14780;48.316;-1.050;2024-01-27T14:11:40;100427.50;;;24.57;30.93
18569;BME280;14780;48.316;-1.050;2024-01-27T14:14:25;100423.91;;;24.56;30.82